Time;durP1;ratioP1;P1;durP2;ratioP2;P2;SDS_P1;SDS_P2;PMS_P1;PMS_P2;Temp;Humidity;BMP_temperature;BMP_pressure;BME280_temperature;BME280_humidity;BME280_pressure;Samples;Min_cycle;Max_cycle;Signal;HPM_P1;HPM_P2
2022/12/25 00:03:57;;;;;;;1.85;1.40;;;;;;;-0.67;83.55;100882.09;10524084;28;20040;-75
2022/12/25 00:09:03;;;;;;;3.10;2.30;;;;;;;-0.68;83.72;100881.28;10492265;28;20045;-76
2022/12/25 00:14:06;;;;;;;3.05;1.77;;;;;;;-0.67;83.80;100882.09;10493184;28;20052;-75
2022/12/25 00:19:12;;;;;;;4.03;1.60;;;;;;;-0.79;83.69;100889.09;10513631;28;20047;-75
2022/12/25 00:24:18;;;;;;;2.70;1.35;;;;;;;-0.91;84.57;100886.97;10524226;28;20051;-76
2022/12/25 00:29:21;;;;;;;1.73;1.10;;;;;;;-0.89;84.77;100894.00;10517266;28;20029;-76
2022/12/25 00:34:23;;;;;;;2.35;1.05;;;;;;;-0.88;84.91;100891.13;10525895;28;20052;-76
2022/12/25 00:39:25;;;;;;;3.75;1.55;;;;;;;-0.84;84.97;100905.88;10521115;28;20052;-76
2022/12/25 00:44:28;;;;;;;3.42;1.70;;;;;;;-0.84;84.74;100905.88;10525427;28;20055;-76
2022/12/25 00:49:30;;;;;;;2.20;1.00;;;;;;;-0.78;84.47;100901.53;10527783;28;20052;-75
2022/12/25 00:54:32;;;;;;;1.50;1.10;;;;;;;-0.79;84.03;100899.88;10523572;28;20040;-76
2022/12/25 00:59:35;;;;;;;1.55;1.15;;;;;;;-0.86;83.36;100916.00;10530296;28;20526;-75
2022/12/25 01:04:37;;;;;;;3.08;0.88;;;;;;;-0.85;82.88;100916.84;10521881;28;20044;-75
2022/12/25 01:15:06;;;;;;;6.00;2.33;;;;;;;-0.66;82.20;100941.19;10485259;28;20044;-75
2022/12/25 01:20:10;;;;;;;3.92;1.15;;;;;;;-0.75;81.50;100955.84;10494838;28;20051;-75
2022/12/25 01:25:12;;;;;;;2.63;1.20;;;;;;;-0.82;82.33;100964.94;10515269;28;20044;-75
2022/12/25 01:30:15;;;;;;;3.50;1.30;;;;;;;-0.93;82.67;100975.22;10527624;28;20029;-75
2022/12/25 01:35:17;;;;;;;1.35;1.23;;;;;;;-0.98;82.80;100977.69;10530297;28;20131;-75
2022/12/25 01:40:19;;;;;;;2.95;1.52;;;;;;;-1.04;83.68;100974.94;10513536;28;20028;-75
2022/12/25 01:45:43;;;;;;;1.83;1.40;;;;;;;-1.02;83.35;100986.38;10527472;28;20049;-75
2022/12/25 01:50:50;;;;;;;2.08;1.27;;;;;;;-0.88;84.09;100984.56;10508357;28;20442;-75
2022/12/25 01:55:56;;;;;;;3.42;1.20;;;;;;;-0.84;83.59;100983.16;10504480;28;20056;-75
2022/12/25 02:00:58;;;;;;;4.00;1.52;;;;;;;-0.97;83.39;100986.59;10527834;28;20033;-75
2022/12/25 02:06:02;;;;;;;0.77;0.77;;;;;;;-1.02;83.76;100991.75;10490255;28;20488;-75
2022/12/25 02:11:04;;;;;;;4.45;1.30;;;;;;;-1.04;83.68;101005.41;10502970;28;20033;-75
2022/12/25 02:16:15;;;;;;;1.65;1.02;;;;;;;-1.05;82.92;100998.34;10503300;28;20048;-75
2022/12/25 02:21:21;;;;;;;1.58;1.10;;;;;;;-1.08;83.02;101009.50;10481320;28;20047;-75
2022/12/25 02:26:41;;;;;;;1.73;1.15;;;;;;;-1.16;83.26;101001.59;10504744;28;20045;-75
2022/12/25 02:31:49;;;;;;;3.15;1.10;;;;;;;-1.19;83.59;101010.06;10503443;28;20052;-75
2022/12/25 02:37:09;;;;;;;3.53;0.98;;;;;;;-1.26;83.39;101020.75;10477085;28;20413;-75
2022/12/25 02:42:17;;;;;;;2.28;1.05;;;;;;;-1.27;83.77;101026.34;10502000;28;20494;-74
2022/12/25 03:11:29;;;;;;;2.03;1.30;;;;;;;-1.16;83.74;101035.75;10503802;28;20515;-74
2022/12/25 03:36:06;;;;;;;1.92;0.93;;;;;;;-1.12;82.63;101054.03;10487080;28;20744;-75
2022/12/25 04:40:39;;;;;;;2.00;0.95;;;;;;;-1.33;82.55;101108.72;10455542;28;20083;-75
2022/12/25 04:45:41;;;;;;;2.35;1.05;;;;;;;-1.39;82.82;101114.88;10504702;28;20036;-75
2022/12/25 04:50:43;;;;;;;2.03;1.20;;;;;;;-1.22;82.95;101115.44;10521920;28;20041;-74
2022/12/25 04:55:45;;;;;;;2.25;0.95;;;;;;;-1.15;82.37;101127.13;10517755;28;20045;-74
2022/12/25 05:00:47;;;;;;;2.95;1.30;;;;;;;-1.25;82.34;101113.13;10536478;28;20048;-74
2022/12/25 05:05:50;;;;;;;3.40;1.50;;;;;;;-1.39;82.57;101122.09;10525840;28;20495;-74
2022/12/25 05:10:52;;;;;;;2.63;1.50;;;;;;;-1.42;83.00;101123.31;10477083;28;20045;-74
2022/12/25 05:15:55;;;;;;;2.92;1.20;;;;;;;-1.36;82.84;101114.50;10520418;28;20048;-75
2022/12/25 05:20:57;;;;;;;2.08;1.30;;;;;;;-1.49;83.02;101129.66;10515312;28;20055;-76
2022/12/25 05:26:06;;;;;;;2.88;1.00;;;;;;;-1.37;83.14;101131.66;10525047;28;20037;-76
2022/12/25 05:31:10;;;;;;;2.85;1.25;;;;;;;-1.38;83.47;101137.25;10488425;28;20063;-77
2022/12/25 05:36:13;;;;;;;2.88;1.17;;;;;;;-1.27;83.13;101145.63;10522244;28;20102;-76
2022/12/25 05:41:15;;;;;;;5.20;1.20;;;;;;;-1.20;82.54;101148.41;10499633;28;20062;-76
2022/12/25 05:46:17;;;;;;;2.70;1.20;;;;;;;-1.38;82.04;101161.47;10511113;28;20048;-76
2022/12/25 05:51:20;;;;;;;1.10;0.95;;;;;;;-1.60;82.64;101174.84;10528980;28;20048;-75
2022/12/25 05:56:22;;;;;;;1.85;0.90;;;;;;;-1.72;82.91;101189.00;10529549;28;20523;-77
2022/12/25 06:01:26;;;;;;;2.35;1.30;;;;;;;-1.74;83.61;101191.84;10528301;28;20051;-76
2022/12/25 06:06:28;;;;;;;2.55;1.20;;;;;;;-1.87;83.89;101195.22;10529543;28;20055;-75
2022/12/25 06:11:30;;;;;;;2.65;1.10;;;;;;;-1.87;83.95;101194.41;10517366;28;20036;-75
2022/12/25 06:16:33;;;;;;;2.17;1.30;;;;;;;-1.93;84.19;101208.56;10528809;28;20067;-76
2022/12/25 06:21:35;;;;;;;2.80;1.40;;;;;;;-1.90;84.63;101203.69;10528527;28;20036;-77
2022/12/25 06:26:37;;;;;;;2.40;1.20;;;;;;;-2.06;84.45;101213.78;10508973;28;20037;-77
2022/12/25 06:31:40;;;;;;;2.95;1.67;;;;;;;-1.99;84.71;101222.75;10494917;28;20033;-75
2022/12/25 06:36:42;;;;;;;2.38;1.17;;;;;;;-1.84;84.93;101231.66;10511344;28;20044;-75
2022/12/25 06:41:44;;;;;;;1.63;0.73;;;;;;;-2.27;84.54;101233.28;10527451;28;20072;-75
2022/12/25 06:46:46;;;;;;;2.47;1.38;;;;;;;-2.66;84.74;101236.16;10527764;28;20534;-76
2022/12/25 06:51:50;;;;;;;2.13;1.25;;;;;;;-2.78;85.48;101252.72;10509148;28;20462;-75
2022/12/25 06:56:52;;;;;;;3.75;1.10;;;;;;;-2.92;85.89;101260.69;10526392;28;20056;-75
2022/12/25 07:01:56;;;;;;;1.67;1.08;;;;;;;-3.01;86.10;101270.63;10525738;28;20048;-76
2022/12/25 07:06:59;;;;;;;2.00;1.17;;;;;;;-3.10;87.05;101274.41;10525070;28;20037;-76
2022/12/25 07:12:24;;;;;;;2.72;1.45;;;;;;;-3.18;87.24;101274.41;10526737;28;20040;-76
2022/12/25 07:17:27;;;;;;;1.13;0.80;;;;;;;-3.19;87.50;101276.28;10526968;28;20067;-76
2022/12/25 07:22:29;;;;;;;2.63;0.90;;;;;;;-3.25;87.66;101277.00;10495115;28;20041;-76
2022/12/25 07:27:31;;;;;;;2.42;1.33;;;;;;;-3.25;87.58;101285.03;10516817;28;20036;-77
2022/12/25 07:32:33;;;;;;;1.33;1.02;;;;;;;-3.23;87.55;101296.44;10514145;28;20396;-77
2022/12/25 07:37:35;;;;;;;1.63;1.02;;;;;;;-3.18;87.89;101299.41;10511086;28;20056;-76
2022/12/25 07:42:38;;;;;;;3.78;1.33;;;;;;;-3.02;87.58;101309.22;10509997;28;20491;-75
2022/12/25 07:47:40;;;;;;;2.42;1.45;;;;;;;-2.98;87.37;101304.34;10514098;28;20056;-75
2022/12/25 07:52:42;;;;;;;3.75;1.60;;;;;;;-2.84;87.78;101317.84;10524296;28;20048;-75
2022/12/25 07:57:44;;;;;;;3.35;1.45;;;;;;;-1.95;86.16;101323.56;10502225;28;20048;-76
2022/12/25 08:02:49;;;;;;;6.40;1.45;;;;;;;-1.41;84.13;101326.03;10507282;28;20642;-75
2022/12/25 08:07:53;;;;;;;3.53;1.60;;;;;;;-1.08;82.27;101318.38;10526123;28;20350;-76
2022/12/25 08:12:55;;;;;;;2.50;1.27;;;;;;;-0.60;80.18;101322.25;10532551;28;20052;-77
2022/12/25 08:17:57;;;;;;;2.38;1.33;;;;;;;-0.69;78.55;101337.72;10522127;28;20055;-77
2022/12/25 08:22:59;;;;;;;3.13;1.40;;;;;;;-0.23;77.61;101339.22;10531755;28;20410;-77
2022/12/25 08:28:02;;;;;;;3.30;1.10;;;;;;;0.09;75.98;101335.16;10557498;28;20413;-76
2022/12/25 08:33:04;;;;;;;3.80;1.20;;;;;;;-0.27;75.87;101351.44;10564461;28;20043;-76
2022/12/25 08:38:06;;;;;;;3.97;1.20;;;;;;;-0.91;76.64;101353.00;10502096;28;20055;-75
2022/12/25 08:43:08;;;;;;;1.92;1.10;;;;;;;-1.65;78.81;101372.88;10498287;28;20037;-75
2022/12/25 08:48:11;;;;;;;2.50;1.13;;;;;;;-2.04;80.07;101373.06;10529647;28;20036;-75
2022/12/25 08:53:13;;;;;;;2.17;1.30;;;;;;;-2.16;80.66;101381.56;10519547;28;20522;-75
2022/12/25 08:58:15;;;;;;;1.98;1.33;;;;;;;-2.20;81.83;101379.41;10532123;28;20679;-75
2022/12/25 09:03:17;;;;;;;2.05;0.93;;;;;;;-2.44;81.89;101396.53;10526804;28;20044;-75
2022/12/25 09:08:20;;;;;;;2.95;1.40;;;;;;;-2.61;82.35;101405.69;10513193;28;20049;-75
2022/12/25 09:13:22;;;;;;;3.28;1.10;;;;;;;-2.71;82.50;101402.41;10528628;28;20040;-75
2022/12/25 09:18:25;;;;;;;2.30;1.05;;;;;;;-2.85;83.21;101406.66;10506983;28;20045;-75
2022/12/25 09:23:27;;;;;;;4.35;1.10;;;;;;;-2.89;83.04;101406.19;10490384;28;20048;-75
2022/12/25 09:28:30;;;;;;;2.17;1.30;;;;;;;-2.90;83.33;101409.88;10513212;28;20051;-75
2022/12/25 09:33:33;;;;;;;4.72;1.65;;;;;;;-2.92;82.84;101422.66;10515275;28;20052;-76
2022/12/25 09:38:35;;;;;;;2.50;1.63;;;;;;;-2.90;83.40;101420.63;10530470;28;20075;-76
2022/12/25 09:43:50;;;;;;;2.42;1.38;;;;;;;-2.90;83.00;101420.63;10500072;28;20576;-76
2022/12/25 09:49:18;;;;;;;3.05;1.40;;;;;;;-2.74;83.22;101431.28;10515709;28;20048;-77
2022/12/25 09:54:29;;;;;;;2.58;1.38;;;;;;;-2.64;82.68;101438.28;10449723;28;20060;-76
2022/12/25 09:59:31;;;;;;;2.13;1.42;;;;;;;-2.61;82.81;101446.00;10472189;28;20048;-75
2022/12/25 10:04:50;;;;;;;2.30;1.48;;;;;;;-2.58;82.47;101429.53;10529564;28;20037;-76
2022/12/25 10:10:28;;;;;;;3.70;1.08;;;;;;;-2.49;82.26;101442.75;10495744;28;20044;-76
2022/12/25 10:15:35;;;;;;;1.63;1.23;;;;;;;-2.53;81.92;101440.59;10515547;28;20052;-75
2022/12/25 10:20:44;;;;;;;4.37;2.07;;;;;;;-2.55;81.92;101453.38;10518016;28;20037;-73
2022/12/25 10:25:47;;;;;;;4.32;1.98;;;;;;;-2.56;81.81;101447.16;10492674;28;20029;-75
2022/12/25 10:30:51;;;;;;;7.05;2.10;;;;;;;-2.52;81.35;101453.84;10506020;28;20060;-72
2022/12/25 10:35:54;;;;;;;4.47;2.10;;;;;;;-2.60;81.34;101453.91;10520217;28;20053;-72
2022/12/25 10:41:21;;;;;;;2.85;1.30;;;;;;;-2.60;80.95;101451.22;10524698;28;20048;-73
2022/12/25 10:46:25;;;;;;;2.80;1.25;;;;;;;-2.61;81.14;101462.09;10494546;28;20411;-73
2022/12/25 10:51:38;;;;;;;3.33;1.27;;;;;;;-2.61;81.12;101462.09;10499163;28;20407;-74
2022/12/25 10:56:40;;;;;;;2.22;1.20;;;;;;;-2.64;80.91;101468.66;10520158;28;20044;-73
2022/12/25 11:01:42;;;;;;;3.20;1.20;;;;;;;-2.56;80.81;101470.50;10505590;28;20036;-74
2022/12/25 11:06:55;;;;;;;3.20;1.30;;;;;;;-2.53;80.91;101479.03;10498542;28;20056;-71
2022/12/25 11:12:03;;;;;;;4.03;1.55;;;;;;;-2.48;80.87;101476.66;10505159;28;21197;-73
2022/12/25 11:17:08;;;;;;;3.37;1.97;;;;;;;-2.49;81.26;101471.47;10509589;28;20056;-73
2022/12/25 11:22:17;;;;;;;5.28;1.70;;;;;;;-2.48;81.29;101481.19;10523199;28;20047;-74
2022/12/25 11:27:35;;;;;;;4.37;2.10;;;;;;;-2.45;81.10;101491.59;10525477;28;20036;-72
2022/12/25 11:32:43;;;;;;;3.67;2.03;;;;;;;-2.39;81.27;101488.22;10524631;28;20052;-74
2022/12/25 11:37:50;;;;;;;3.22;1.83;;;;;;;-2.36;81.53;101487.88;10519090;28;20036;-73
2022/12/25 11:43:14;;;;;;;5.43;2.05;;;;;;;-2.35;81.80;101486.84;10521809;28;20047;-72
2022/12/25 11:48:36;;;;;;;3.05;2.15;;;;;;;-2.27;81.59;101499.41;10519334;28;20522;-72
2022/12/25 11:53:46;;;;;;;2.95;1.65;;;;;;;-2.16;81.89;101510.59;10520485;28;20499;-73
2022/12/25 11:58:52;;;;;;;4.80;1.90;;;;;;;-2.13;82.01;101509.41;10515338;28;20518;-72
2022/12/25 12:03:55;;;;;;;2.22;1.30;;;;;;;-2.04;81.89;101515.59;10525470;28;20047;-72
2022/12/25 12:09:21;;;;;;;2.13;1.17;;;;;;;-2.09;82.23;101516.09;10512470;28;20048;-72
2022/12/25 12:14:45;;;;;;;2.33;1.30;;;;;;;-2.10;81.88;101522.50;10498876;28;20059;-72
2022/12/25 12:19:47;;;;;;;1.60;1.30;;;;;;;-2.10;82.08;101529.72;10521363;28;20045;-72
2022/12/25 12:24:55;;;;;;;4.63;1.20;;;;;;;-2.20;82.30;101536.19;10539430;28;20430;-73
2022/12/25 12:30:01;;;;;;;1.10;0.70;;;;;;;-2.35;82.44;101531.72;10521901;28;20063;-72
2022/12/25 12:35:07;;;;;;;1.23;1.13;;;;;;;-2.39;82.67;101541.97;10519146;28;20052;-71
2022/12/25 12:40:32;;;;;;;2.67;1.30;;;;;;;-2.41;82.90;101544.00;10538336;28;20044;-72
2022/12/25 12:45:36;;;;;;;2.47;1.33;;;;;;;-2.47;82.86;101550.88;10538956;28;20032;-72
2022/12/25 12:50:39;;;;;;;3.20;1.35;;;;;;;-2.44;83.40;101553.22;10521433;28;20044;-72
2022/12/25 12:55:46;;;;;;;2.30;1.50;;;;;;;-2.45;83.45;101564.16;10535286;28;20048;-72
2022/12/25 13:00:57;;;;;;;1.55;1.40;;;;;;;-2.47;83.21;101566.19;10527986;28;20041;-72
2022/12/25 13:06:13;;;;;;;3.42;1.27;;;;;;;-2.42;83.23;101569.22;10511919;28;20044;-72
2022/12/25 13:11:20;;;;;;;2.13;1.02;;;;;;;-2.51;83.07;101560.31;10515069;28;20135;-73
2022/12/25 13:16:30;;;;;;;2.25;1.40;;;;;;;-2.57;83.45;101570.94;10512163;28;20407;-72
2022/12/25 13:21:33;;;;;;;6.78;1.73;;;;;;;-2.65;83.37;101582.53;10513080;28;20036;-73
2022/12/25 13:26:35;;;;;;;2.65;1.67;;;;;;;-2.73;82.73;101590.63;10531247;28;20041;-72
2022/12/25 13:31:56;;;;;;;4.68;1.92;;;;;;;-2.93;83.21;101589.31;10531374;28;20067;-72
2022/12/25 13:37:06;;;;;;;2.25;1.23;;;;;;;-3.08;83.09;101594.50;10512163;28;20044;-72
2022/12/25 13:42:09;;;;;;;4.88;1.77;;;;;;;-3.23;83.34;101604.25;10531056;28;20047;-72
2022/12/25 13:47:33;;;;;;;6.10;2.55;;;;;;;-3.40;83.21;101596.19;10510426;28;20053;-72
2022/12/25 13:52:37;;;;;;;4.50;2.25;;;;;;;-3.60;83.42;101602.88;10511896;28;20048;-73
2022/12/25 13:57:54;;;;;;;2.58;1.58;;;;;;;-3.72;83.45;101604.19;10511064;28;20040;-72
2022/12/25 14:02:57;;;;;;;4.85;1.92;;;;;;;-3.80;83.41;101622.94;10512332;28;20048;-72
2022/12/25 14:08:02;;;;;;;2.67;1.90;;;;;;;-3.80;83.84;101625.63;10510415;28;20040;-72
2022/12/25 14:13:08;;;;;;;3.78;1.77;;;;;;;-3.80;84.20;101621.09;10511714;28;20048;-72
2022/12/25 14:18:14;;;;;;;5.75;2.35;;;;;;;-3.83;84.43;101631.28;10494968;28;20051;-72
2022/12/25 14:23:16;;;;;;;2.42;1.55;;;;;;;-3.82;84.63;101639.16;10511687;28;20052;-72
2022/12/25 14:28:20;;;;;;;5.80;1.88;;;;;;;-3.82;84.38;101639.16;10510692;28;20075;-72
2022/12/25 14:33:24;;;;;;;4.05;2.33;;;;;;;-3.90;84.73;101647.19;10526105;28;20044;-73
2022/12/25 14:38:31;;;;;;;2.78;1.80;;;;;;;-3.96;85.06;101655.91;10526903;28;20044;-72
2022/12/25 14:43:35;;;;;;;4.45;1.83;;;;;;;-3.99;84.95;101651.69;10528398;28;20044;-72
2022/12/25 14:48:37;;;;;;;3.42;1.88;;;;;;;-3.92;85.89;101667.13;10528034;28;20326;-72
2022/12/25 14:53:50;;;;;;;5.38;2.47;;;;;;;-3.90;86.13;101667.81;10510229;28;20048;-72
2022/12/25 14:58:55;;;;;;;4.05;1.88;;;;;;;-3.89;86.06;101674.84;10509893;28;20542;-72
2022/12/25 15:04:07;;;;;;;3.63;2.35;;;;;;;-3.86;85.69;101669.16;10527782;28;20045;-72
2022/12/25 15:09:17;;;;;;;4.90;2.15;;;;;;;-3.83;85.65;101695.63;10525566;28;20507;-73
2022/12/25 15:14:24;;;;;;;2.83;1.80;;;;;;;-3.92;85.79;101692.09;10527192;28;20044;-72
2022/12/25 15:19:31;;;;;;;3.85;1.80;;;;;;;-4.03;85.81;101695.06;10525143;28;20447;-72
2022/12/25 15:24:33;;;;;;;4.93;2.42;;;;;;;-4.09;85.89;101701.06;10509511;28;20040;-72
2022/12/25 15:29:35;;;;;;;3.72;2.03;;;;;;;-4.16;86.79;101703.56;10508984;28;20047;-72
2022/12/25 15:34:38;;;;;;;2.63;2.05;;;;;;;-4.17;86.41;101711.72;10526469;28;20048;-72
2022/12/25 15:39:40;;;;;;;2.67;2.03;;;;;;;-4.06;87.00;101720.34;10526714;28;20515;-72
2022/12/25 15:44:44;;;;;;;5.00;1.80;;;;;;;-4.07;87.02;101715.97;10527038;28;20119;-72
2022/12/25 15:49:46;;;;;;;3.10;2.13;;;;;;;-4.08;87.18;101714.31;10509104;28;20052;-72
2022/12/25 15:54:48;;;;;;;5.70;2.05;;;;;;;-4.06;87.46;101722.19;10507883;28;20041;-73
2022/12/25 15:59:51;;;;;;;4.35;2.55;;;;;;;-3.98;87.57;101725.75;10487279;28;20041;-72
2022/12/25 16:04:54;;;;;;;3.90;2.67;;;;;;;-4.01;87.58;101727.91;10520103;28;20051;-73
2022/12/25 16:09:56;;;;;;;6.13;2.88;;;;;;;-4.07;87.78;101731.22;10524261;28;20040;-73
2022/12/25 16:14:58;;;;;;;3.83;1.77;;;;;;;-4.09;87.84;101736.75;10502715;28;20052;-72
2022/12/25 16:20:00;;;;;;;3.53;2.17;;;;;;;-4.03;88.12;101736.09;10505893;28;20051;-73
2022/12/25 16:25:02;;;;;;;3.22;1.80;;;;;;;-4.00;88.18;101741.13;10498355;28;20044;-72
2022/12/25 16:30:05;;;;;;;5.82;2.53;;;;;;;-3.97;88.44;101746.22;10526205;28;20052;-73
2022/12/25 16:35:09;;;;;;;3.20;2.15;;;;;;;-3.92;88.13;101748.41;10507612;28;20051;-75
2022/12/25 16:40:11;;;;;;;3.72;2.13;;;;;;;-3.86;88.29;101765.69;10498198;28;20040;-76
2022/12/25 16:45:14;;;;;;;5.00;2.40;;;;;;;-3.82;88.73;101761.69;10517910;28;20530;-74
2022/12/25 16:50:16;;;;;;;4.10;2.05;;;;;;;-3.84;88.38;101755.63;10517038;28;20040;-74
2022/12/25 16:55:18;;;;;;;3.95;2.63;;;;;;;-3.89;88.29;101766.00;10516582;28;20048;-76
2022/12/25 17:00:21;;;;;;;4.88;3.15;;;;;;;-3.86;88.38;101763.84;10523118;28;20052;-76
2022/12/25 17:05:23;;;;;;;4.97;2.95;;;;;;;-3.87;88.62;101770.22;10529560;28;20033;-75
2022/12/25 17:10:26;;;;;;;6.35;3.05;;;;;;;-3.89;88.17;101776.72;10528862;28;20047;-76
2022/12/25 17:15:29;;;;;;;4.82;3.05;;;;;;;-3.89;88.33;101769.53;10504169;28;20047;-76
2022/12/25 17:20:36;;;;;;;6.65;3.03;;;;;;;-3.83;88.60;101781.44;10489526;28;20037;-76
2022/12/25 17:25:43;;;;;;;4.90;2.97;;;;;;;-3.83;88.90;101782.28;10523155;28;20035;-75
2022/12/25 17:30:45;;;;;;;5.63;2.92;;;;;;;-3.83;88.63;101801.06;10524028;28;20040;-76
2022/12/25 17:35:47;;;;;;;5.70;2.65;;;;;;;-3.71;88.53;101801.63;10509402;28;20508;-74
2022/12/25 17:41:09;;;;;;;4.18;2.67;;;;;;;-3.68;88.60;101801.31;10529815;28;20036;-75
2022/12/25 17:46:17;;;;;;;6.18;2.85;;;;;;;-3.62;88.68;101800.69;10491315;28;20506;-76
2022/12/25 17:51:23;;;;;;;5.50;3.40;;;;;;;-3.53;88.86;101797.03;10509734;28;20052;-78
2022/12/25 17:56:29;;;;;;;7.13;3.10;;;;;;;-3.50;88.57;101794.03;10508556;28;20051;-78
2022/12/25 18:01:36;;;;;;;6.63;3.25;;;;;;;-3.45;88.47;101796.25;10502343;28;20049;-76
2022/12/25 18:06:38;;;;;;;4.88;3.20;;;;;;;-3.44;88.43;101792.56;10502383;28;20047;-77
2022/12/25 18:11:42;;;;;;;6.28;3.20;;;;;;;-3.40;88.34;101796.59;10515812;28;20057;-78
2022/12/25 18:16:48;;;;;;;4.95;3.05;;;;;;;-3.38;88.39;101800.78;10504369;28;20068;-75
2022/12/25 18:21:54;;;;;;;5.78;2.92;;;;;;;-3.40;88.49;101800.13;10516558;28;20048;-73
2022/12/25 18:26:57;;;;;;;6.45;3.03;;;;;;;-3.38;88.01;101792.75;10490949;28;20072;-76
2022/12/25 18:31:59;;;;;;;6.75;2.80;;;;;;;-3.36;88.17;101792.56;10474823;28;20036;-74
2022/12/25 18:37:02;;;;;;;6.55;3.20;;;;;;;-3.32;88.28;101801.97;10525617;28;20040;-74
2022/12/25 18:47:29;;;;;;;4.28;2.67;;;;;;;-3.37;88.08;101812.38;10525190;28;20044;-74
2022/12/25 18:52:38;;;;;;;3.67;2.20;;;;;;;-3.38;88.28;101811.53;10517919;28;20148;-73
2022/12/25 18:57:41;;;;;;;6.35;2.80;;;;;;;-3.45;88.75;101818.56;10509718;28;20537;-72
2022/12/25 19:02:43;;;;;;;8.68;3.67;;;;;;;-3.46;88.48;101816.88;10521564;28;20056;-73
2022/12/25 19:07:49;;;;;;;4.68;2.95;;;;;;;-3.39;88.90;101825.94;10525424;28;20032;-74
2022/12/25 19:12:52;;;;;;;5.93;3.28;;;;;;;-3.38;88.88;101838.38;10525799;28;20036;-74
2022/12/25 19:17:54;;;;;;;5.90;3.13;;;;;;;-3.36;89.09;101830.16;10522248;28;20056;-73
2022/12/25 19:22:56;;;;;;;6.95;3.55;;;;;;;-3.29;88.65;101828.53;10507153;28;20396;-73
2022/12/25 19:27:59;;;;;;;4.05;3.08;;;;;;;-3.26;88.96;101840.78;10460804;28;20044;-73
2022/12/25 19:33:01;;;;;;;5.72;3.13;;;;;;;-3.28;89.05;101842.78;10509805;28;20068;-73
2022/12/25 19:38:03;;;;;;;5.25;3.08;;;;;;;-3.34;89.03;101838.88;10498826;28;20417;-73
2022/12/25 19:43:05;;;;;;;3.40;2.72;;;;;;;-3.39;88.76;101841.22;10539036;28;20044;-73
2022/12/25 19:48:08;;;;;;;4.95;3.03;;;;;;;-3.39;88.60;101849.25;10553137;28;20052;-74
2022/12/25 19:53:10;;;;;;;6.60;2.88;;;;;;;-3.38;88.95;101865.19;10544785;28;20079;-74
2022/12/25 19:58:12;;;;;;;5.88;3.00;;;;;;;-3.38;89.02;101872.41;10550578;28;20071;-73
2022/12/25 20:03:14;;;;;;;3.28;2.40;;;;;;;-3.36;89.42;101881.97;10539219;28;20051;-74
2022/12/25 20:08:17;;;;;;;6.85;2.70;;;;;;;-3.43;89.39;101880.94;10551734;28;20557;-74
2022/12/25 20:13:19;;;;;;;5.40;3.28;;;;;;;-3.42;89.37;101895.19;10536296;28;20033;-74
2022/12/25 20:18:22;;;;;;;5.22;2.70;;;;;;;-3.40;89.51;101896.72;10524294;28;20075;-74
2022/12/25 20:23:24;;;;;;;4.82;3.20;;;;;;;-3.38;89.66;101905.44;10506872;28;20048;-74
2022/12/25 20:28:27;;;;;;;5.78;3.22;;;;;;;-3.38;90.00;101905.44;10509306;28;20428;-73
2022/12/25 20:33:29;;;;;;;4.38;2.85;;;;;;;-3.34;90.07;101885.34;10515876;28;20028;-76
2022/12/25 20:38:32;;;;;;;5.75;3.03;;;;;;;-3.31;89.63;101891.38;10506766;28;20045;-77
2022/12/25 20:43:35;;;;;;;6.28;3.13;;;;;;;-3.28;90.08;101908.03;10484437;28;20040;-76
2022/12/25 20:48:38;;;;;;;5.50;3.28;;;;;;;-3.30;89.93;101919.91;10520407;28;20045;-78
2022/12/25 20:53:40;;;;;;;5.97;3.38;;;;;;;-3.30;90.21;101918.06;10519683;28;20046;-72
2022/12/25 20:58:43;;;;;;;7.03;3.25;;;;;;;-3.29;89.92;101935.03;10516830;28;20049;-72
2022/12/25 21:03:45;;;;;;;5.88;3.15;;;;;;;-3.30;90.17;101927.97;10500307;28;20045;-72
2022/12/25 21:08:47;;;;;;;4.40;3.20;;;;;;;-3.34;90.49;101943.53;10564151;28;20430;-75
2022/12/25 21:13:50;;;;;;;6.18;3.50;;;;;;;-3.37;90.82;101947.38;10502619;28;20049;-74
2022/12/25 21:18:52;;;;;;;5.13;3.15;;;;;;;-3.37;90.99;101951.91;10500092;28;20101;-73
2022/12/25 21:23:55;;;;;;;4.97;3.33;;;;;;;-3.37;91.07;101955.44;10521226;28;20043;-76
2022/12/25 21:28:59;;;;;;;4.38;3.10;;;;;;;-3.31;91.56;101963.84;10498900;28;20063;-76
2022/12/25 21:34:01;;;;;;;5.63;3.03;;;;;;;-3.32;91.67;101973.75;10509321;28;20049;-75
2022/12/25 21:39:06;;;;;;;7.78;3.33;;;;;;;-3.33;91.53;101955.97;10517245;28;20048;-76
2022/12/25 21:44:09;;;;;;;4.28;3.15;;;;;;;-3.33;91.63;101959.47;10486878;28;20049;-72
2022/12/25 21:52:05;;;;;;;4.82;3.10;;;;;;;-3.33;91.56;101962.16;10464803;28;20048;-73
2022/12/25 21:54:34;;;;;;;5.10;2.70;;;;;;;-3.28;91.85;101960.88;10507108;28;20032;-73
2022/12/25 21:59:36;;;;;;;4.88;2.85;;;;;;;-3.29;91.33;101960.03;10514469;28;20342;-75
2022/12/25 22:04:39;;;;;;;5.50;2.60;;;;;;;-3.31;92.09;101958.47;10497589;28;20047;-72
2022/12/25 22:09:48;;;;;;;3.92;2.70;;;;;;;-3.31;92.22;101967.38;10507981;28;20040;-72
2022/12/25 22:14:50;;;;;;;2.92;2.40;;;;;;;-3.30;92.41;101966.38;10519329;28;20047;-72
2022/12/25 22:19:52;;;;;;;2.95;2.58;;;;;;;-3.29;92.42;101960.03;10523709;28;20049;-73
2022/12/25 22:24:57;;;;;;;3.33;2.40;;;;;;;-3.27;92.74;101966.09;10507784;28;20053;-73
2022/12/25 22:29:59;;;;;;;3.90;2.60;;;;;;;-3.27;92.30;101957.19;10512140;28;20045;-72
2022/12/25 22:35:02;;;;;;;3.03;2.28;;;;;;;-3.30;92.31;101961.00;10519563;28;20047;-72
2022/12/25 22:40:05;;;;;;;4.38;2.72;;;;;;;-3.27;92.27;101957.19;10495396;28;20516;-73
2022/12/25 22:45:09;;;;;;;2.90;2.17;;;;;;;-3.30;92.67;101954.78;10501578;28;20048;-73
2022/12/25 22:50:13;;;;;;;3.28;2.30;;;;;;;-3.30;92.45;101958.31;10506590;28;20041;-74
2022/12/25 22:55:17;;;;;;;4.88;2.40;;;;;;;-3.35;92.43;101964.16;10527613;28;20059;-73
2022/12/25 23:00:20;;;;;;;3.03;2.30;;;;;;;-3.27;92.28;101973.28;10510183;28;20036;-74
2022/12/25 23:05:22;;;;;;;3.65;2.35;;;;;;;-3.31;92.69;101978.09;10519417;28;20342;-72
2022/12/25 23:10:24;;;;;;;2.70;2.10;;;;;;;-3.30;92.39;101982.47;10513069;28;20052;-73
2022/12/25 23:15:27;;;;;;;3.42;2.20;;;;;;;-3.27;92.50;101974.13;10495303;28;20047;-73
2022/12/25 23:26:24;;;;;;;4.32;2.40;;;;;;;-3.24;92.56;101986.41;10508198;28;20044;-75
2022/12/25 23:31:21;;;;;;;2.85;2.22;;;;;;;-3.28;92.49;101985.88;10509465;28;20545;-75
2022/12/25 23:36:24;;;;;;;4.13;2.58;;;;;;;-3.22;92.53;101989.75;10511358;28;20510;-76
2022/12/25 23:41:26;;;;;;;4.55;3.15;;;;;;;-3.18;92.34;101993.81;10490585;28;20048;-76
2022/12/25 23:46:28;;;;;;;3.47;2.70;;;;;;;-3.12;92.32;101996.72;10521564;28;20047;-74
2022/12/25 23:51:31;;;;;;;5.05;3.25;;;;;;;-3.09;92.46;101999.09;10506055;28;20517;-73
2022/12/25 23:56:34;;;;;;;4.80;3.08;;;;;;;-2.97;92.41;101998.78;10500803;28;20045;-74
